Decoded Metar for KHWV (SHIRLEY in NY, USA) (IATA:HWV) | Meteo·Mobile Aviation Weather
aviador You're here:

KHWV Decoded Metar

SHIRLEY in NY, USA
Report Time2019-01-20 11:10:00
UTC Time2019-01-20 11:17:05
Flight Rules mvfr MVFR
WindVRB at 04 kt
Visibility9999 m
Phenomena:Light Rain
Clouds:Scattered 005 Hf
Broken 019 Hf
Overcast 050 Hf
Expected CloudBase > 400 ft AGL from Temp-Dew spread
Ceiling1,900 ft
Temp04°C (ISA -11)
Dew Point03°C (93% RH)
AAT1.1°C
QNH1000 hPa
Density Alt-699 ft
Elevation69 ft
Report Wrong Elevation
Raw Report
KHWV 201110Z AUTO VRB04KT 8SM -RA SCT005 BKN019 OVC050 04/03 A2952
RMK AO2 LTG DSNT SE P0001 T00440033=

Extra information for KHWV:More info

Metar Taf Metar & Taf Last 4 Metars F.Rules Stats Wind Profile Meteogram Temp Stats Airport Information Weather charts Add Link Nearby VenuesMetar ALERT Operation Metar Decoded Social comments

AIRNAV info for KHWV